GCXO

Tenerife Norte Airport

Tenerife Island, Spain
METAR GCXO 181100Z 31010KT 280V340 9000 3500NW BCFG -DZ BKN005 15/15 Q1021 NOSIG
Observed Flight Rules
Jun-18 @ 11:00 UTC (13 minutes ago) Instrument Flight Rules
Wind Visibility Clouds Conditions
310° at 10 knots 8,996 meters
  • Broken at 500' AGL
  • Patches of
  • Fog
  • Light Drizzle
Temperatures Readings
Current 15°C / 59°F
Dewpoint 15°C / 59°F
Humidity 100%
Altimeter 30.15" Hg
Pressure 1021 hPa
Elevation 632
METAR GCXO 181100Z 31010KT 280V340 9000 3500NW BCFG -DZ BKN005 15/15 Q1021 NOSIG
Observed Flight Rules
Jun-18 @ 11:00 UTC
(13 minutes ago)
IFR
Wind Visibility
310° at 10 knots 8,996 meters
Clouds
  • Broken at 500' AGL
Conditions
  • Patches of
  • Fog
  • Light Drizzle
Temperature Dewpoint
15°C / 59°F 15°C / 59°F
Humidity Altimeter Pressure
100% 30.15" Hg 1021 hPa